Time;durP1;ratioP1;P1;durP2;ratioP2;P2;SDS_P1;SDS_P2;PMS_P1;PMS_P2;Temp;Humidity;BMP_temperature;BMP_pressure;BME280_temperature;BME280_humidity;BME280_pressure;Samples;Min_cycle;Max_cycle;Signal;HPM_P1;HPM_P2
2021/11/30 00:00:06;;;;;;;3.97;2.05;;;16.70;56.90;;;;;;5072072;28;20047;-82
2021/11/30 00:02:32;;;;;;;6.25;2.45;;;16.70;56.90;;;;;;5080185;28;20031;-83
2021/11/30 00:04:57;;;;;;;4.60;2.53;;;16.60;56.80;;;;;;5074119;28;20123;-79
2021/11/30 00:07:23;;;;;;;4.32;2.08;;;16.60;56.70;;;;;;5091907;28;20111;-82
2021/11/30 00:12:20;;;;;;;3.90;2.10;;;16.60;56.60;;;;;;5091278;28;20031;-80
2021/11/30 00:14:49;;;;;;;4.97;2.13;;;16.60;56.70;;;;;;5092018;28;20115;-82
2021/11/30 00:17:15;;;;;;;4.32;2.15;;;16.50;56.70;;;;;;5091838;28;20107;-81
2021/11/30 00:19:42;;;;;;;5.90;2.30;;;16.60;56.70;;;;;;5091720;28;20032;-80
2021/11/30 00:22:10;;;;;;;6.20;2.30;;;16.50;56.70;;;;;;5091905;28;20020;-84
2021/11/30 00:24:36;;;;;;;3.83;2.20;;;16.50;56.60;;;;;;5091179;28;20066;-80
2021/11/30 00:27:05;;;;;;;3.80;1.73;;;16.50;56.50;;;;;;5091755;28;20103;-81
2021/11/30 00:29:31;;;;;;;4.45;2.00;;;16.50;56.90;;;;;;5091506;28;20043;-81
2021/11/30 00:31:57;;;;;;;3.38;1.55;;;16.60;59.20;;;;;;5091758;28;20059;-83
2021/11/30 00:34:22;;;;;;;4.82;1.70;;;16.60;58.00;;;;;;5091455;28;20099;-80
2021/11/30 00:36:48;;;;;;;3.33;1.50;;;16.60;58.30;;;;;;5090135;28;20518;-81
2021/11/30 00:39:14;;;;;;;4.40;2.08;;;16.60;58.80;;;;;;5089627;28;20028;-81
2021/11/30 00:41:46;;;;;;;5.07;1.88;;;16.60;59.00;;;;;;5071217;28;20819;-81
2021/11/30 00:44:14;;;;;;;3.28;1.58;;;16.70;59.10;;;;;;5076868;28;20039;-84
2021/11/30 00:46:41;;;;;;;4.85;1.80;;;16.60;59.20;;;;;;5091134;28;20020;-82
2021/11/30 00:49:07;;;;;;;3.63;1.90;;;16.70;59.20;;;;;;5073293;28;20028;-79
2021/11/30 00:51:36;;;;;;;3.35;1.55;;;16.60;59.20;;;;;;5091279;28;20480;-80
2021/11/30 00:54:03;;;;;;;3.75;1.75;;;16.70;59.10;;;;;;5073739;28;20099;-83
2021/11/30 00:56:28;;;;;;;2.83;1.52;;;16.70;59.10;;;;;;5072542;28;20021;-80
2021/11/30 00:58:54;;;;;;;3.78;2.28;;;16.70;59.00;;;;;;5091275;28;20434;-82
2021/11/30 01:01:21;;;;;;;3.05;1.80;;;16.70;59.00;;;;;;5091626;28;20027;-82
2021/11/30 01:03:46;;;;;;;3.83;1.40;;;16.70;58.80;;;;;;5091656;28;20023;-79
2021/11/30 01:06:12;;;;;;;4.55;2.03;;;16.70;58.70;;;;;;5091341;28;20024;-80
2021/11/30 01:08:38;;;;;;;3.35;1.50;;;16.70;58.60;;;;;;5091078;28;20026;-82
2021/11/30 01:11:04;;;;;;;2.85;1.35;;;16.70;58.60;;;;;;5091224;28;20035;-83
2021/11/30 01:13:33;;;;;;;2.63;1.40;;;16.70;58.50;;;;;;5091005;28;20020;-81
2021/11/30 01:16:00;;;;;;;4.13;1.40;;;16.70;58.40;;;;;;5091241;28;20463;-82
2021/11/30 01:18:26;;;;;;;4.38;1.73;;;16.70;58.40;;;;;;5090999;28;20067;-81
2021/11/30 01:20:52;;;;;;;3.10;1.58;;;16.70;58.30;;;;;;5091226;28;20494;-79
2021/11/30 01:23:19;;;;;;;3.65;1.75;;;16.70;58.20;;;;;;5093624;28;20024;-79
2021/11/30 01:25:45;;;;;;;3.33;1.05;;;16.80;58.20;;;;;;5095010;28;20058;-80
2021/11/30 01:28:11;;;;;;;4.53;1.73;;;16.70;58.20;;;;;;5086683;28;20060;-81
2021/11/30 01:30:37;;;;;;;2.90;1.65;;;16.70;58.20;;;;;;5074650;28;20080;-81
2021/11/30 01:33:05;;;;;;;3.05;1.23;;;16.70;58.10;;;;;;5074755;28;20017;-81
2021/11/30 01:35:32;;;;;;;3.65;1.40;;;16.70;58.10;;;;;;5074542;28;20480;-80
2021/11/30 01:37:58;;;;;;;5.82;1.50;;;16.70;58.10;;;;;;5056709;28;20117;-83
2021/11/30 01:40:25;;;;;;;4.18;2.03;;;16.80;58.00;;;;;;5074412;28;20051;-81
2021/11/30 01:42:52;;;;;;;3.50;1.40;;;16.70;58.00;;;;;;5074681;28;20027;-82
2021/11/30 01:46:07;;;;;;;3.85;1.75;;;16.70;58.00;;;;;;5073559;28;20032;-79
2021/11/30 01:50:39;;;;;;;2.70;1.48;;;16.80;58.10;;;;;;5094569;28;20026;-81
2021/11/30 01:53:06;;;;;;;3.15;1.38;;;16.80;58.10;;;;;;5076638;28;20090;-83
2021/11/30 01:55:32;;;;;;;2.45;1.30;;;16.80;58.00;;;;;;5094521;28;20039;-82
2021/11/30 01:57:59;;;;;;;2.35;1.08;;;16.80;58.00;;;;;;5076450;28;20395;-81
2021/11/30 02:00:26;;;;;;;2.60;1.20;;;16.80;58.00;;;;;;5094369;28;20537;-80
2021/11/30 02:02:51;;;;;;;4.43;1.40;;;16.80;58.00;;;;;;5094474;28;20081;-82
2021/11/30 02:05:17;;;;;;;3.28;1.52;;;16.80;57.90;;;;;;5087810;28;20024;-80
2021/11/30 02:07:45;;;;;;;3.63;1.70;;;16.80;57.90;;;;;;5073900;28;20032;-80
2021/11/30 02:10:13;;;;;;;2.90;1.67;;;16.80;57.90;;;;;;5074045;28;20043;-80
2021/11/30 02:12:41;;;;;;;4.35;1.55;;;16.80;57.80;;;;;;5073792;28;20060;-80
2021/11/30 02:15:09;;;;;;;2.70;1.10;;;16.80;57.80;;;;;;5073882;28;20052;-82
2021/11/30 02:17:38;;;;;;;3.00;1.50;;;16.80;57.80;;;;;;5073631;28;20025;-80
2021/11/30 02:20:05;;;;;;;3.25;1.52;;;16.80;57.80;;;;;;5073954;28;20028;-81
2021/11/30 02:22:31;;;;;;;3.30;1.30;;;16.80;57.80;;;;;;5073595;28;20056;-80
2021/11/30 02:24:57;;;;;;;2.85;1.38;;;16.80;57.70;;;;;;5055901;28;20060;-82
2021/11/30 02:27:23;;;;;;;3.38;1.30;;;16.80;58.20;;;;;;5076003;28;20020;-80
2021/11/30 02:29:49;;;;;;;2.55;1.20;;;16.80;57.70;;;;;;5094360;28;20028;-82
2021/11/30 02:32:15;;;;;;;2.25;1.00;;;16.80;57.70;;;;;;5093990;28;20072;-80
2021/11/30 02:34:41;;;;;;;2.67;1.45;;;16.80;57.70;;;;;;5092719;28;20032;-80
2021/11/30 02:37:11;;;;;;;3.42;1.13;;;16.80;57.60;;;;;;5093937;28;20030;-80
2021/11/30 02:39:38;;;;;;;1.95;1.15;;;16.80;57.60;;;;;;5093934;28;20040;-80
2021/11/30 02:42:06;;;;;;;3.15;1.40;;;16.80;57.60;;;;;;5093753;28;20069;-79
2021/11/30 02:44:33;;;;;;;3.33;1.08;;;16.90;57.50;;;;;;5080170;28;20074;-82
2021/11/30 02:47:04;;;;;;;3.05;1.42;;;16.90;57.50;;;;;;5073382;28;20027;-80
2021/11/30 02:49:33;;;;;;;2.75;1.38;;;16.90;57.50;;;;;;5073272;28;20063;-82
2021/11/30 02:52:06;;;;;;;2.75;1.30;;;16.90;57.60;;;;;;5074441;28;20028;-84
2021/11/30 02:54:33;;;;;;;2.60;1.20;;;16.90;57.70;;;;;;5073125;28;20107;-84
2021/11/30 02:57:01;;;;;;;4.88;1.65;;;16.90;57.80;;;;;;5073277;28;20393;-83
2021/11/30 02:59:30;;;;;;;4.13;1.63;;;16.90;57.70;;;;;;5073049;28;20036;-83
2021/11/30 03:01:57;;;;;;;2.58;1.10;;;16.90;57.70;;;;;;5073129;28;20028;-85
2021/11/30 03:04:23;;;;;;;3.53;1.38;;;16.90;57.70;;;;;;5072940;28;20404;-83
2021/11/30 03:06:49;;;;;;;3.67;1.40;;;16.90;57.80;;;;;;5073429;28;20028;-84
2021/11/30 03:09:15;;;;;;;2.60;1.08;;;16.90;57.80;;;;;;5073118;28;20025;-84
2021/11/30 03:11:41;;;;;;;2.75;1.45;;;16.90;57.90;;;;;;5079157;28;20080;-85
2021/11/30 03:14:07;;;;;;;2.80;1.30;;;16.90;58.00;;;;;;5093218;28;20024;-82
2021/11/30 03:16:33;;;;;;;2.42;1.63;;;16.90;58.10;;;;;;5092809;28;20502;-85
2021/11/30 03:18:59;;;;;;;4.05;1.30;;;16.90;58.10;;;;;;5093091;28;20036;-83
2021/11/30 03:21:25;;;;;;;2.00;1.20;;;16.90;58.10;;;;;;5092716;28;20027;-84
2021/11/30 03:23:51;;;;;;;2.47;1.25;;;16.90;58.80;;;;;;5093053;28;20028;-85
2021/11/30 03:26:16;;;;;;;3.45;1.30;;;16.90;58.30;;;;;;5093239;28;20069;-84
2021/11/30 03:28:43;;;;;;;2.58;1.50;;;16.90;58.30;;;;;;5076159;28;20079;-84
2021/11/30 03:31:21;;;;;;;4.30;1.13;;;16.90;58.20;;;;;;5072667;28;20013;-85
2021/11/30 03:33:59;;;;;;;2.40;1.27;;;16.90;58.30;;;;;;5072698;28;20028;-86
2021/11/30 03:36:25;;;;;;;2.03;1.20;;;16.90;58.30;;;;;;5072417;28;20374;-84
2021/11/30 03:38:51;;;;;;;2.38;1.27;;;16.90;58.10;;;;;;5072478;28;20407;-85
2021/11/30 03:41:16;;;;;;;3.22;1.25;;;16.90;58.10;;;;;;5072688;28;20024;-85
2021/11/30 03:43:42;;;;;;;2.45;1.33;;;16.90;58.10;;;;;;5081906;28;20020;-84
2021/11/30 03:46:08;;;;;;;1.63;1.08;;;16.90;58.00;;;;;;5092307;28;20499;-85
2021/11/30 03:48:34;;;;;;;2.63;1.50;;;16.90;58.00;;;;;;5075216;28;20089;-84
2021/11/30 03:50:59;;;;;;;2.40;1.10;;;16.90;58.10;;;;;;5072165;28;20475;-85
2021/11/30 03:53:25;;;;;;;2.35;1.55;;;16.90;58.00;;;;;;5071874;28;20029;-86
2021/11/30 03:55:51;;;;;;;4.10;1.38;;;16.90;58.00;;;;;;5072052;28;20024;-84
2021/11/30 03:58:17;;;;;;;2.35;1.30;;;16.90;58.00;;;;;;5084266;28;20145;-83
2021/11/30 04:00:43;;;;;;;3.20;1.60;;;16.90;58.00;;;;;;5092076;28;20480;-83
2021/11/30 04:03:08;;;;;;;2.63;1.30;;;17.00;58.10;;;;;;5092116;28;20024;-83
2021/11/30 04:05:34;;;;;;;2.58;1.27;;;16.90;58.00;;;;;;5073620;28;20035;-83
2021/11/30 04:08:00;;;;;;;2.72;1.20;;;17.00;58.10;;;;;;5091993;28;20042;-83
2021/11/30 04:10:26;;;;;;;2.05;1.20;;;16.90;58.00;;;;;;5091858;28;20396;-83
2021/11/30 04:12:52;;;;;;;2.72;1.15;;;16.90;58.00;;;;;;5092187;28;20036;-84
2021/11/30 04:15:18;;;;;;;2.40;1.25;;;16.90;58.00;;;;;;5092393;28;20024;-84
2021/11/30 04:17:44;;;;;;;3.03;1.35;;;16.90;58.00;;;;;;5091685;28;20434;-84
2021/11/30 04:20:11;;;;;;;2.85;1.23;;;17.00;58.10;;;;;;5091933;28;20077;-84
2021/11/30 04:22:37;;;;;;;2.28;1.30;;;17.00;58.10;;;;;;5091587;28;20061;-84
2021/11/30 04:25:05;;;;;;;2.10;1.08;;;17.00;58.20;;;;;;5091822;28;20047;-84
2021/11/30 04:27:31;;;;;;;2.47;1.20;;;17.00;58.10;;;;;;5074758;28;20020;-83
2021/11/30 04:29:57;;;;;;;4.28;1.33;;;17.00;58.20;;;;;;5071320;28;20017;-83
2021/11/30 04:32:23;;;;;;;2.53;1.20;;;17.00;58.20;;;;;;5071505;28;20036;-83
2021/11/30 04:34:48;;;;;;;3.33;1.05;;;17.00;58.20;;;;;;5053486;28;20477;-84
2021/11/30 04:37:14;;;;;;;1.80;1.00;;;17.00;58.20;;;;;;5071407;28;20016;-84
2021/11/30 04:39:40;;;;;;;2.83;1.00;;;17.00;58.20;;;;;;5071053;28;20036;-83
2021/11/30 04:42:05;;;;;;;1.95;1.05;;;17.00;58.30;;;;;;5071359;28;20063;-83
2021/11/30 04:44:34;;;;;;;2.30;1.10;;;17.00;58.20;;;;;;5071315;28;20108;-84
2021/11/30 04:47:06;;;;;;;1.95;0.88;;;17.00;58.20;;;;;;5076046;28;20024;-84
2021/11/30 04:51:57;;;;;;;1.90;1.10;;;17.00;58.20;;;;;;5091242;28;20024;-84
2021/11/30 04:54:24;;;;;;;3.20;1.45;;;17.00;58.30;;;;;;5091285;28;20020;-84
2021/11/30 04:56:50;;;;;;;2.28;1.00;;;17.00;58.20;;;;;;5073153;28;20031;-83
2021/11/30 04:59:19;;;;;;;2.92;1.30;;;17.00;58.30;;;;;;5091274;28;20036;-83
2021/11/30 05:01:45;;;;;;;2.67;1.23;;;17.00;58.30;;;;;;5073095;28;20036;-83
2021/11/30 05:04:12;;;;;;;2.97;0.90;;;17.00;58.20;;;;;;5091303;28;20028;-83
2021/11/30 05:06:38;;;;;;;3.83;0.95;;;17.00;58.30;;;;;;5091291;28;20069;-83
2021/11/30 05:09:05;;;;;;;1.50;0.90;;;17.00;58.30;;;;;;5091077;28;20024;-83
2021/11/30 05:11:31;;;;;;;1.63;0.88;;;17.00;58.30;;;;;;5091229;28;20089;-83
2021/11/30 05:13:57;;;;;;;1.55;0.90;;;17.00;58.20;;;;;;5090939;28;20027;-83
2021/11/30 05:16:23;;;;;;;1.83;0.82;;;17.00;58.20;;;;;;5091222;28;20412;-83
2021/11/30 05:18:48;;;;;;;1.65;1.15;;;17.10;58.20;;;;;;5061643;28;20060;-83
2021/11/30 05:21:14;;;;;;;2.10;1.00;;;17.00;58.80;;;;;;5070868;28;20473;-83
2021/11/30 05:23:41;;;;;;;2.08;0.93;;;17.00;58.30;;;;;;5052985;28;20071;-82
2021/11/30 05:26:08;;;;;;;2.70;1.23;;;17.00;58.20;;;;;;5070826;28;20009;-83
2021/11/30 05:28:40;;;;;;;2.97;0.90;;;17.00;58.30;;;;;;5052834;28;20079;-83
2021/11/30 05:31:07;;;;;;;3.72;1.20;;;17.00;58.30;;;;;;5070909;28;20079;-83
2021/11/30 05:33:34;;;;;;;3.63;0.75;;;17.00;58.30;;;;;;5081175;28;20032;-83
2021/11/30 05:36:01;;;;;;;2.38;0.80;;;17.00;58.30;;;;;;5090663;28;20024;-83
2021/11/30 05:38:27;;;;;;;1.38;0.60;;;17.00;58.30;;;;;;5072808;28;20491;-82
2021/11/30 05:40:53;;;;;;;1.60;0.73;;;17.00;58.30;;;;;;5091058;28;20020;-83
2021/11/30 05:43:20;;;;;;;1.60;0.73;;;17.10;58.30;;;;;;5091233;28;20024;-83
2021/11/30 05:45:45;;;;;;;2.70;0.90;;;17.10;58.30;;;;;;5090516;28;20017;-83
2021/11/30 05:48:11;;;;;;;2.00;0.65;;;17.10;58.30;;;;;;5090807;28;20038;-83
2021/11/30 05:50:37;;;;;;;1.52;0.80;;;17.10;58.30;;;;;;5084711;28;20047;-82
2021/11/30 05:53:04;;;;;;;2.10;0.95;;;17.10;58.30;;;;;;5070307;28;20047;-84
2021/11/30 05:55:30;;;;;;;1.45;0.60;;;17.10;58.30;;;;;;5052635;28;20025;-83
2021/11/30 05:57:56;;;;;;;3.83;0.70;;;17.10;58.30;;;;;;5070285;28;20037;-83
2021/11/30 06:00:22;;;;;;;2.40;0.77;;;17.10;58.40;;;;;;5055815;28;20499;-82
2021/11/30 06:05:17;;;;;;;3.28;0.95;;;17.10;58.30;;;;;;5088190;28;20020;-82
2021/11/30 06:07:42;;;;;;;2.28;0.70;;;17.10;58.30;;;;;;5088624;28;20082;-82
2021/11/30 06:10:08;;;;;;;2.38;0.80;;;17.10;58.30;;;;;;5077341;28;20480;-81
2021/11/30 06:12:34;;;;;;;1.23;0.52;;;17.20;58.40;;;;;;5084972;28;20020;-81
2021/11/30 06:14:59;;;;;;;1.73;0.85;;;17.20;58.30;;;;;;5074335;28;20693;-82
2021/11/30 06:17:25;;;;;;;2.35;1.00;;;17.10;58.30;;;;;;5083343;28;20069;-83
2021/11/30 06:19:50;;;;;;;2.92;0.80;;;17.20;58.30;;;;;;5094164;28;20024;-83
2021/11/30 06:22:16;;;;;;;2.33;0.70;;;17.20;58.40;;;;;;5094040;28;20040;-83
2021/11/30 06:24:42;;;;;;;2.45;0.80;;;17.20;58.40;;;;;;5093893;28;20146;-82
2021/11/30 06:27:07;;;;;;;2.25;0.80;;;17.20;58.40;;;;;;5088568;28;20099;-82
2021/11/30 06:29:33;;;;;;;2.47;0.70;;;17.20;58.40;;;;;;5077461;28;20020;-84
2021/11/30 06:31:58;;;;;;;2.50;0.93;;;17.30;58.40;;;;;;5074324;28;20029;-84
2021/11/30 06:34:24;;;;;;;2.53;0.60;;;17.20;58.40;;;;;;5077199;28;20505;-83
2021/11/30 06:36:50;;;;;;;2.25;0.70;;;17.30;58.50;;;;;;5073382;28;20400;-84
2021/11/30 06:39:15;;;;;;;2.72;0.80;;;17.30;58.50;;;;;;5073385;28;20388;-83
2021/11/30 06:41:41;;;;;;;1.83;0.60;;;17.20;58.50;;;;;;5073320;28;20078;-82
2021/11/30 06:44:07;;;;;;;2.10;0.70;;;17.30;58.50;;;;;;5073300;28;20032;-83
2021/11/30 06:46:32;;;;;;;1.15;0.47;;;17.30;58.50;;;;;;5073272;28;20039;-82
2021/11/30 06:48:58;;;;;;;2.20;0.88;;;17.30;58.60;;;;;;5072872;28;20033;-83
2021/11/30 06:51:23;;;;;;;2.50;0.70;;;17.30;58.60;;;;;;5073722;28;20459;-82
2021/11/30 06:53:49;;;;;;;1.77;0.75;;;17.30;58.70;;;;;;5073078;28;20054;-83
2021/11/30 06:56:15;;;;;;;1.85;0.82;;;17.30;58.90;;;;;;5086264;28;20472;-82
2021/11/30 06:58:41;;;;;;;2.67;0.93;;;17.30;59.00;;;;;;5087812;28;20435;-81
2021/11/30 07:01:08;;;;;;;3.42;0.90;;;17.40;59.60;;;;;;5086285;28;20014;-85
2021/11/30 07:03:35;;;;;;;3.47;0.60;;;17.40;59.10;;;;;;5084113;28;20621;-84
2021/11/30 07:06:15;;;;;;;3.22;0.70;;;17.40;59.20;;;;;;5088309;28;20034;-82
2021/11/30 07:08:51;;;;;;;7.50;1.00;;;17.40;59.40;;;;;;5069687;28;20042;-81
2021/11/30 07:11:36;;;;;;;1.42;0.60;;;17.40;59.50;;;;;;5072304;28;20028;-81
2021/11/30 07:14:03;;;;;;;2.75;0.98;;;17.40;59.50;;;;;;5087726;28;20024;-83
2021/11/30 07:16:29;;;;;;;3.30;0.60;;;17.40;59.60;;;;;;5083728;28;20020;-80
2021/11/30 07:18:55;;;;;;;1.95;0.98;;;17.40;59.70;;;;;;5084697;28;20039;-83
2021/11/30 07:21:21;;;;;;;2.60;0.70;;;17.40;59.70;;;;;;5072301;28;20115;-81
2021/11/30 07:23:47;;;;;;;3.00;0.85;;;17.40;59.60;;;;;;5070165;28;20149;-82
2021/11/30 07:26:13;;;;;;;1.67;0.57;;;17.40;59.70;;;;;;5071968;28;20131;-83
2021/11/30 07:28:39;;;;;;;5.25;1.60;;;17.40;59.70;;;;;;5072480;28;20095;-83
2021/11/30 07:31:09;;;;;;;4.82;0.70;;;17.40;59.70;;;;;;5072157;28;20504;-83
2021/11/30 07:33:37;;;;;;;1.90;0.55;;;17.40;59.70;;;;;;5071185;28;20153;-79
2021/11/30 07:36:09;;;;;;;2.75;0.80;;;17.40;59.60;;;;;;5070544;28;20016;-81
2021/11/30 07:38:35;;;;;;;3.00;0.80;;;17.40;59.60;;;;;;5073370;28;20392;-81
2021/11/30 07:41:01;;;;;;;1.52;0.60;;;17.40;59.60;;;;;;5070983;28;20122;-81
2021/11/30 07:43:26;;;;;;;2.50;0.70;;;17.30;59.40;;;;;;5074001;28;20445;-79
2021/11/30 07:45:52;;;;;;;3.75;0.60;;;17.30;59.60;;;;;;5061509;28;20096;-79
2021/11/30 07:48:18;;;;;;;3.08;0.68;;;17.30;59.70;;;;;;5070639;28;20035;-79
2021/11/30 07:50:45;;;;;;;2.38;0.50;;;17.30;59.80;;;;;;5070231;28;20013;-80
2021/11/30 07:53:10;;;;;;;1.67;0.80;;;17.30;60.00;;;;;;5069299;28;20032;-83
2021/11/30 07:55:36;;;;;;;2.83;0.60;;;17.30;59.90;;;;;;5052813;28;20017;-81
2021/11/30 07:58:03;;;;;;;2.55;0.82;;;17.30;59.90;;;;;;5071060;28;20029;-81
2021/11/30 08:00:29;;;;;;;1.17;0.52;;;17.30;60.00;;;;;;5072594;28;20048;-82
2021/11/30 08:02:55;;;;;;;3.47;0.60;;;17.30;60.00;;;;;;5070434;28;20412;-82
2021/11/30 08:05:21;;;;;;;1.73;0.80;;;17.30;60.20;;;;;;5075039;28;20108;-82
2021/11/30 08:07:47;;;;;;;4.85;0.70;;;17.30;60.30;;;;;;5070166;28;20108;-82
2021/11/30 08:10:16;;;;;;;2.38;0.55;;;17.30;60.50;;;;;;5079176;28;20099;-79
2021/11/30 08:12:42;;;;;;;3.63;0.88;;;17.30;60.90;;;;;;5091756;28;20369;-80
2021/11/30 08:15:09;;;;;;;3.42;1.00;;;17.30;61.40;;;;;;5087274;28;20024;-79
2021/11/30 08:17:34;;;;;;;1.70;0.65;;;17.30;61.30;;;;;;5072202;28;20028;-79
2021/11/30 08:20:01;;;;;;;4.20;1.05;;;17.30;61.60;;;;;;5079700;28;20544;-80
2021/11/30 08:22:27;;;;;;;2.10;0.80;;;17.30;61.70;;;;;;5084546;28;20050;-80
2021/11/30 08:24:53;;;;;;;3.47;0.80;;;17.20;61.90;;;;;;5089007;28;20016;-79
2021/11/30 08:27:19;;;;;;;3.08;0.90;;;17.20;61.90;;;;;;5091812;28;20886;-80
2021/11/30 08:29:48;;;;;;;2.47;0.57;;;17.20;61.90;;;;;;5091476;28;20027;-79
2021/11/30 08:32:14;;;;;;;2.90;1.13;;;17.20;62.00;;;;;;5089024;28;20031;-79
2021/11/30 08:34:41;;;;;;;2.75;0.73;;;17.10;61.90;;;;;;5091577;28;20115;-80
2021/11/30 08:37:09;;;;;;;3.40;1.08;;;17.10;62.00;;;;;;5091516;28;20107;-79
2021/11/30 08:39:35;;;;;;;3.88;1.00;;;17.10;62.00;;;;;;5091543;28;20032;-79
2021/11/30 08:42:03;;;;;;;3.00;0.73;;;17.10;62.00;;;;;;5071971;28;20040;-80
2021/11/30 08:44:30;;;;;;;2.95;0.80;;;17.10;62.00;;;;;;5070915;28;20117;-80
2021/11/30 08:46:58;;;;;;;3.33;0.90;;;17.10;62.00;;;;;;5071170;28;20090;-79
2021/11/30 08:49:25;;;;;;;1.95;0.98;;;17.00;62.00;;;;;;5071212;28;20039;-79
2021/11/30 08:51:51;;;;;;;1.92;0.80;;;17.00;62.00;;;;;;5072347;28;20507;-81
2021/11/30 08:54:18;;;;;;;2.47;0.65;;;17.00;62.10;;;;;;5088902;28;20036;-81
2021/11/30 08:56:43;;;;;;;2.63;0.73;;;17.00;62.10;;;;;;5075098;28;20024;-81
2021/11/30 08:59:11;;;;;;;2.45;1.00;;;17.00;62.10;;;;;;5070687;28;20036;-81
2021/11/30 09:01:38;;;;;;;1.70;0.50;;;17.00;62.30;;;;;;5070789;28;20048;-85
2021/11/30 09:04:04;;;;;;;2.80;0.70;;;16.90;62.50;;;;;;5078597;28;20119;-80
2021/11/30 09:06:29;;;;;;;5.18;0.90;;;17.00;62.80;;;;;;5071285;28;20551;-82
2021/11/30 09:08:55;;;;;;;3.35;0.70;;;17.00;63.70;;;;;;5070653;28;20032;-83
2021/11/30 09:11:22;;;;;;;1.95;0.60;;;17.00;63.20;;;;;;5071010;28;20123;-83
2021/11/30 09:13:48;;;;;;;3.15;0.70;;;16.90;62.90;;;;;;5072993;28;20502;-84
2021/11/30 09:16:14;;;;;;;3.08;0.77;;;17.00;62.80;;;;;;5059212;28;20119;-82
2021/11/30 09:18:40;;;;;;;2.70;0.85;;;16.90;62.80;;;;;;5070491;28;20045;-79
2021/11/30 09:21:06;;;;;;;2.75;0.90;;;16.90;62.80;;;;;;5071161;28;20024;-84
2021/11/30 09:23:31;;;;;;;3.38;1.00;;;16.90;62.70;;;;;;5070364;28;20059;-79
2021/11/30 09:25:57;;;;;;;2.50;0.98;;;16.90;62.70;;;;;;5069352;28;20070;-84
2021/11/30 09:28:24;;;;;;;2.22;0.65;;;16.90;62.70;;;;;;5070139;28;20507;-81
2021/11/30 09:30:50;;;;;;;3.28;0.77;;;16.90;62.80;;;;;;5070539;28;20068;-85
2021/11/30 09:33:16;;;;;;;2.45;0.60;;;16.90;62.80;;;;;;5070686;28;20020;-83
2021/11/30 09:35:42;;;;;;;2.05;0.68;;;16.90;62.80;;;;;;5070564;28;20082;-84
2021/11/30 09:38:08;;;;;;;2.60;0.70;;;16.90;62.80;;;;;;5070626;28;20096;-83
2021/11/30 09:40:35;;;;;;;2.75;0.73;;;16.90;62.80;;;;;;5070734;28;20028;-85
2021/11/30 09:43:01;;;;;;;2.10;0.63;;;16.80;62.80;;;;;;5070694;28;20103;-84
2021/11/30 09:45:27;;;;;;;5.53;0.75;;;16.80;62.80;;;;;;5074549;28;20052;-83
2021/11/30 09:47:54;;;;;;;3.33;0.73;;;16.80;62.90;;;;;;5073795;28;20032;-83
2021/11/30 09:50:22;;;;;;;3.85;0.90;;;16.80;62.80;;;;;;5074300;28;20020;-84
2021/11/30 09:52:51;;;;;;;2.70;0.90;;;16.80;62.90;;;;;;5077593;28;20035;-84
2021/11/30 09:55:18;;;;;;;2.97;1.05;;;16.80;62.90;;;;;;5074192;28;20021;-84
2021/11/30 09:57:45;;;;;;;3.25;1.30;;;16.80;62.90;;;;;;5085901;28;20368;-84
2021/11/30 10:00:16;;;;;;;3.38;1.13;;;16.70;62.90;;;;;;5078945;28;20035;-83
2021/11/30 10:02:42;;;;;;;2.38;0.60;;;16.70;62.90;;;;;;5074509;28;20036;-83
2021/11/30 10:05:08;;;;;;;2.75;0.90;;;16.70;63.00;;;;;;5084864;28;20031;-84
2021/11/30 10:07:42;;;;;;;3.20;0.90;;;16.70;63.00;;;;;;5090670;28;20016;-83
2021/11/30 10:10:17;;;;;;;3.72;0.80;;;16.70;63.00;;;;;;5083261;28;20052;-85
2021/11/30 10:12:52;;;;;;;3.03;1.05;;;16.70;63.00;;;;;;5073708;28;20147;-81
2021/11/30 10:15:17;;;;;;;2.30;0.70;;;16.70;63.00;;;;;;5075081;28;20028;-83
2021/11/30 10:17:43;;;;;;;5.22;1.00;;;16.70;63.00;;;;;;5073539;28;20020;-84
2021/11/30 10:20:12;;;;;;;3.47;1.15;;;16.70;63.10;;;;;;5075918;28;20126;-84
2021/11/30 10:22:52;;;;;;;3.92;0.98;;;16.70;63.10;;;;;;5094237;28;20135;-80
2021/11/30 10:25:22;;;;;;;2.58;0.50;;;16.70;63.10;;;;;;5093947;28;20039;-84
2021/11/30 10:27:58;;;;;;;3.60;0.90;;;16.70;63.10;;;;;;5093746;28;20024;-78
2021/11/30 10:30:27;;;;;;;2.78;0.75;;;16.70;63.10;;;;;;5094014;28;20070;-81
2021/11/30 10:32:55;;;;;;;3.85;1.00;;;16.70;63.10;;;;;;5093588;28;20483;-83
2021/11/30 10:35:23;;;;;;;3.25;0.70;;;16.70;63.10;;;;;;5093872;28;20028;-79
2021/11/30 10:37:50;;;;;;;2.53;0.80;;;16.70;63.20;;;;;;5093554;28;20414;-78
2021/11/30 10:40:18;;;;;;;2.42;1.13;;;16.70;63.10;;;;;;5093810;28;20031;-79
2021/11/30 10:42:56;;;;;;;2.50;0.80;;;16.70;63.20;;;;;;5084234;28;20052;-79
2021/11/30 10:45:49;;;;;;;1.67;0.65;;;16.70;63.20;;;;;;5073605;28;20032;-79
2021/11/30 10:48:16;;;;;;;2.90;0.90;;;16.70;63.40;;;;;;5074557;28;20036;-81
2021/11/30 10:50:47;;;;;;;2.25;0.55;;;16.60;63.30;;;;;;5092841;28;20020;-82
2021/11/30 10:53:24;;;;;;;3.03;0.70;;;16.60;63.40;;;;;;5075287;28;20051;-80
2021/11/30 10:55:56;;;;;;;1.80;0.80;;;16.60;63.40;;;;;;5052363;28;20052;-82
2021/11/30 10:58:28;;;;;;;2.40;0.60;;;16.60;63.40;;;;;;5079135;28;20051;-82
2021/11/30 11:00:59;;;;;;;2.33;0.65;;;16.60;63.50;;;;;;5093015;28;20021;-80
2021/11/30 11:03:26;;;;;;;4.50;1.10;;;16.60;63.50;;;;;;5093795;28;20737;-80
2021/11/30 11:08:47;;;;;;;3.08;0.73;;;16.60;63.60;;;;;;5091930;28;20047;-82
2021/11/30 11:11:21;;;;;;;3.33;0.80;;;16.60;63.60;;;;;;5092914;28;20023;-81
2021/11/30 11:17:29;;;;;;;2.25;0.80;;;16.60;63.70;;;;;;5092922;28;20107;-81
2021/11/30 11:19:55;;;;;;;4.22;0.88;;;16.60;63.80;;;;;;5063806;28;20500;-81
2021/11/30 11:22:24;;;;;;;2.17;0.70;;;16.60;64.00;;;;;;5071111;28;20025;-84
2021/11/30 11:28:13;;;;;;;2.85;0.80;;;16.60;64.10;;;;;;5073871;28;20031;-82
2021/11/30 11:30:39;;;;;;;2.25;0.75;;;16.60;64.30;;;;;;5071499;28;20557;-78
2021/11/30 11:33:17;;;;;;;2.25;0.85;;;16.70;64.30;;;;;;5071089;28;20024;-82
2021/11/30 11:35:44;;;;;;;2.25;0.63;;;16.80;64.00;;;;;;5071739;28;20600;-81
2021/11/30 11:38:10;;;;;;;2.83;0.80;;;16.80;63.90;;;;;;5071391;28;20032;-81
2021/11/30 11:40:36;;;;;;;2.83;0.98;;;16.90;63.80;;;;;;5072378;28;20028;-79
2021/11/30 11:43:03;;;;;;;2.03;0.75;;;17.00;63.70;;;;;;5071796;28;20032;-80
2021/11/30 11:45:29;;;;;;;4.70;0.77;;;17.00;63.70;;;;;;5071472;28;20472;-79
2021/11/30 11:48:04;;;;;;;4.78;0.70;;;17.00;63.70;;;;;;5069490;28;20032;-79
2021/11/30 11:50:53;;;;;;;2.17;0.90;;;17.10;63.80;;;;;;5071106;28;20552;-79
2021/11/30 11:53:24;;;;;;;5.07;0.88;;;17.10;63.70;;;;;;5071339;28;20036;-79
2021/11/30 11:56:31;;;;;;;1.83;0.60;;;17.20;63.70;;;;;;5071391;28;20029;-80
2021/11/30 11:59:18;;;;;;;3.78;0.80;;;17.20;63.60;;;;;;5071707;28;20032;-80
2021/11/30 12:01:50;;;;;;;3.42;0.75;;;17.30;63.50;;;;;;5072008;28;20070;-80
2021/11/30 12:04:18;;;;;;;3.17;0.82;;;17.30;63.20;;;;;;5071820;28;20146;-80
2021/11/30 12:07:01;;;;;;;3.17;0.65;;;17.40;63.30;;;;;;5071231;28;20074;-80
2021/11/30 12:09:28;;;;;;;9.27;0.80;;;17.40;63.30;;;;;;5071621;28;20025;-78
2021/11/30 12:11:57;;;;;;;1.95;0.70;;;17.40;63.20;;;;;;5070184;28;20025;-78
2021/11/30 12:14:30;;;;;;;2.28;0.80;;;17.50;63.20;;;;;;5070027;28;20092;-78
2021/11/30 12:17:11;;;;;;;2.55;0.60;;;17.70;62.90;;;;;;5070339;28;20027;-78
2021/11/30 12:19:39;;;;;;;2.30;0.63;;;17.90;62.50;;;;;;5070155;28;20377;-78
2021/11/30 12:22:05;;;;;;;2.45;0.73;;;18.00;62.00;;;;;;5070647;28;20012;-79
2021/11/30 12:24:33;;;;;;;2.30;0.63;;;18.10;61.80;;;;;;5071132;28;20086;-79
2021/11/30 12:27:01;;;;;;;4.40;1.00;;;18.10;61.80;;;;;;5071279;28;20020;-79
2021/11/30 12:29:29;;;;;;;2.33;0.80;;;18.20;61.90;;;;;;5076868;28;20080;-79
2021/11/30 12:31:56;;;;;;;3.40;0.77;;;18.20;61.80;;;;;;5080110;28;20024;-78
2021/11/30 12:34:33;;;;;;;2.70;0.70;;;18.20;62.00;;;;;;5069748;28;20028;-78
2021/11/30 12:37:22;;;;;;;3.40;0.95;;;18.20;62.00;;;;;;5068320;28;20488;-78
2021/11/30 12:40:08;;;;;;;2.47;0.85;;;18.20;61.80;;;;;;5066956;28;20032;-78
2021/11/30 12:42:40;;;;;;;1.58;0.80;;;18.30;61.80;;;;;;5067768;28;20443;-78
2021/11/30 12:45:12;;;;;;;6.50;1.35;;;18.30;61.80;;;;;;5067694;28;20056;-78
2021/11/30 12:47:38;;;;;;;3.15;0.77;;;18.30;61.80;;;;;;5069554;28;20036;-79
2021/11/30 12:50:19;;;;;;;1.88;0.65;;;18.40;61.80;;;;;;5069457;28;20032;-78
2021/11/30 12:52:45;;;;;;;2.20;0.63;;;18.40;61.60;;;;;;5067500;28;20480;-80
2021/11/30 12:55:10;;;;;;;2.40;0.80;;;18.50;61.60;;;;;;5069695;28;20042;-79
2021/11/30 12:57:39;;;;;;;3.85;0.70;;;18.50;61.40;;;;;;5070442;28;20029;-79
2021/11/30 13:00:21;;;;;;;2.65;1.02;;;18.50;62.00;;;;;;5071279;28;20090;-79
2021/11/30 13:02:49;;;;;;;3.88;0.65;;;18.60;62.30;;;;;;5070062;28;20029;-81
2021/11/30 13:05:15;;;;;;;2.53;0.95;;;18.60;62.00;;;;;;5071328;28;20476;-81
2021/11/30 13:07:47;;;;;;;2.42;0.80;;;18.60;61.80;;;;;;5071029;28;20540;-81
2021/11/30 13:10:36;;;;;;;3.70;0.80;;;18.60;61.70;;;;;;5071262;28;20426;-81